createdAt,value
2023-08-17T00:01:43.326Z,5.32
2023-08-17T00:06:48.153Z,5.35
2023-08-17T00:11:50.944Z,5.32
2023-08-17T00:16:54.756Z,5.35
2023-08-17T00:21:59.088Z,5.45
2023-08-17T00:27:01.986Z,5.43
2023-08-17T00:32:05.556Z,5.05
2023-08-17T00:37:09.704Z,5.28
2023-08-17T00:42:12.539Z,5.15
2023-08-17T00:47:15.942Z,5.15
2023-08-17T00:52:20.106Z,4.70
2023-08-17T00:57:23.448Z,5.05
2023-08-17T01:02:26.873Z,4.72
2023-08-17T01:07:31.130Z,4.60
2023-08-17T01:12:35.102Z,4.30
2023-08-17T01:17:43.027Z,4.80
2023-08-17T01:22:51.052Z,4.45
2023-08-17T01:27:55.297Z,4.32
2023-08-17T01:33:00.747Z,4.60
2023-08-17T01:38:09.765Z,4.13
2023-08-17T01:43:14.593Z,4.20
2023-08-17T01:48:17.494Z,4.35
2023-08-17T01:53:20.289Z,4.18
2023-08-17T01:58:24.479Z,4.47
2023-08-17T02:03:30.022Z,3.72
2023-08-17T02:08:32.834Z,3.72
2023-08-17T02:13:38.227Z,3.95
2023-08-17T02:18:41.937Z,4.22
2023-08-17T02:23:44.849Z,3.58
2023-08-17T02:28:49.026Z,4.20
2023-08-17T02:33:51.797Z,4.78
2023-08-17T02:38:54.590Z,4.65
2023-08-17T02:43:58.669Z,4.72
2023-08-17T02:49:01.452Z,5.32
2023-08-17T02:54:04.260Z,4.70
2023-08-17T02:59:08.709Z,3.72
2023-08-17T03:04:11.589Z,1.40
2023-08-17T03:09:14.315Z,0.90
2023-08-17T03:14:18.596Z,0.90
2023-08-17T03:19:21.417Z,0.70
2023-08-17T03:24:24.231Z,0.50
2023-08-17T03:29:29.414Z,0.55
2023-08-17T03:34:32.494Z,0.73
2023-08-17T03:39:37.573Z,0.63
2023-08-17T03:44:41.961Z,0.47
2023-08-17T03:49:44.711Z,1.23
2023-08-17T03:54:47.666Z,0.60
2023-08-17T03:59:51.774Z,0.50
2023-08-17T04:04:54.741Z,0.50
2023-08-17T04:09:57.628Z,0.60
2023-08-17T04:15:01.880Z,0.50
2023-08-17T04:20:06.712Z,0.55
2023-08-17T04:25:10.711Z,0.60
2023-08-17T04:30:20.206Z,0.70
2023-08-17T04:35:32.198Z,1.08
2023-08-17T04:40:39.518Z,0.90
2023-08-17T04:45:50.242Z,0.70
2023-08-17T04:50:58.785Z,0.90
2023-08-17T04:56:06.061Z,0.95
2023-08-17T05:01:15.431Z,1.08
2023-08-17T05:06:23.316Z,1.42
2023-08-17T05:11:29.812Z,1.10
2023-08-17T05:16:35.645Z,0.80
2023-08-17T05:43:52.917Z,0.70
2023-08-17T06:02:15.511Z,1.20
2023-08-17T06:14:52.070Z,1.50
2023-08-17T06:20:01.402Z,2.15
2023-08-17T06:25:14.405Z,2.22
2023-08-17T06:30:22.878Z,2.17
2023-08-17T06:36:33.181Z,2.20
2023-08-17T06:41:37.465Z,2.60
2023-08-17T06:47:14.654Z,2.55
2023-08-17T06:52:24.080Z,3.03
2023-08-17T06:57:31.551Z,2.80
2023-08-17T07:02:46.544Z,3.72
2023-08-17T07:07:55.119Z,3.60
2023-08-17T07:13:03.846Z,3.78
2023-08-17T07:18:07.568Z,3.47
2023-08-17T07:23:11.549Z,4.10
2023-08-17T07:28:16.604Z,3.65
2023-08-17T07:33:19.524Z,4.03
2023-08-17T07:38:22.568Z,4.38
2023-08-17T07:43:27.287Z,6.68
2023-08-17T07:48:34.498Z,4.43
2023-08-17T07:53:37.586Z,4.13
2023-08-17T07:58:41.872Z,4.40
2023-08-17T08:03:44.895Z,4.35
2023-08-17T08:08:47.818Z,4.18
2023-08-17T08:13:52.358Z,4.60
2023-08-17T08:18:59.245Z,4.47
2023-08-17T08:24:04.982Z,4.85
2023-08-17T08:29:11.207Z,4.78
2023-08-17T08:34:21.598Z,4.97
2023-08-17T08:39:27.725Z,4.93
2023-08-17T08:51:53.991Z,5.13
2023-08-17T09:05:27.748Z,5.75
2023-08-17T09:15:41.259Z,8.10
2023-08-17T09:20:47.724Z,5.65
2023-08-17T09:25:58.904Z,5.22
2023-08-17T09:31:05.025Z,5.85
2023-08-17T09:36:08.095Z,5.60
2023-08-17T09:41:15.017Z,8.88
2023-08-17T09:46:18.134Z,6.18
2023-08-17T09:51:20.918Z,5.80
2023-08-17T09:56:25.869Z,6.03
2023-08-17T10:01:30.269Z,6.88
2023-08-17T10:06:34.501Z,7.82
2023-08-17T10:11:40.316Z,6.47
2023-08-17T10:16:46.663Z,5.57
2023-08-17T10:21:54.628Z,5.78
2023-08-17T10:26:59.430Z,6.32
2023-08-17T10:32:02.480Z,5.85
2023-08-17T10:37:05.761Z,6.10
2023-08-17T10:42:10.327Z,6.05
2023-08-17T10:47:24.480Z,5.57
2023-08-17T10:52:32.654Z,6.13
2023-08-17T10:57:40.983Z,6.65
2023-08-17T11:02:46.928Z,6.15
2023-08-17T11:07:50.684Z,5.78
2023-08-17T11:12:58.005Z,6.57
2023-08-17T11:18:01.619Z,6.40
2023-08-17T11:23:10.902Z,6.32
2023-08-17T11:28:20.562Z,5.93
2023-08-17T11:33:27.863Z,5.50
2023-08-17T11:38:35.358Z,5.35
2023-08-17T11:43:42.124Z,5.43
2023-08-17T11:50:03.442Z,5.95
2023-08-17T12:03:19.432Z,5.30
2023-08-17T12:08:30.058Z,5.10
2023-08-17T12:14:13.679Z,4.85
2023-08-17T12:19:24.222Z,4.60
2023-08-17T12:24:29.215Z,3.80
2023-08-17T12:29:32.087Z,4.38
2023-08-17T12:34:36.360Z,4.55
2023-08-17T12:39:39.420Z,4.13
2023-08-17T12:45:06.091Z,4.50
2023-08-17T12:50:12.538Z,4.50
2023-08-17T12:55:16.361Z,4.95
2023-08-17T13:00:25.019Z,4.00
2023-08-17T13:05:31.485Z,4.07
2023-08-17T13:10:34.539Z,5.05
2023-08-17T13:15:38.173Z,4.20
2023-08-17T13:28:28.406Z,3.10
2023-08-17T13:33:31.376Z,3.60
2023-08-17T13:39:37.921Z,3.50
2023-08-17T13:44:42.460Z,3.10
2023-08-17T13:49:46.263Z,3.45
2023-08-17T13:54:49.274Z,3.60
2023-08-17T13:59:54.248Z,3.28
2023-08-17T14:19:12.271Z,4.32
2023-08-17T14:24:15.184Z,4.50
2023-08-17T14:29:18.034Z,4.97
2023-08-17T14:34:25.578Z,4.80
2023-08-17T14:39:28.940Z,5.57
2023-08-17T14:44:31.839Z,5.13
2023-08-17T14:49:36.017Z,5.15
2023-08-17T14:54:43.250Z,5.15
2023-08-17T14:59:46.581Z,5.35
2023-08-17T15:04:50.889Z,5.38
2023-08-17T15:09:54.664Z,5.68
2023-08-17T15:14:57.652Z,5.43
2023-08-17T15:20:02.343Z,5.28
2023-08-17T15:25:05.763Z,5.45
2023-08-17T15:30:10.308Z,9.98
2023-08-17T15:35:15.136Z,15.60
2023-08-17T15:40:18.066Z,6.25
2023-08-17T15:45:21.729Z,5.80
2023-08-17T15:50:26.009Z,6.50
2023-08-17T15:55:29.099Z,6.20
2023-08-17T16:00:32.589Z,5.22
2023-08-17T16:05:36.776Z,5.50
2023-08-17T16:10:39.822Z,5.75
2023-08-17T16:15:42.689Z,7.05
2023-08-17T16:20:46.958Z,5.47
2023-08-17T16:25:49.954Z,5.10
2023-08-17T16:30:52.795Z,5.35
2023-08-17T16:35:57.120Z,5.65
2023-08-17T16:41:00.055Z,5.47
2023-08-17T16:46:03.111Z,6.07
2023-08-17T16:51:07.625Z,12.15
2023-08-17T16:56:10.657Z,5.45
2023-08-17T17:01:15.423Z,5.70
2023-08-17T17:06:20.671Z,6.13
2023-08-17T17:11:23.510Z,5.88
2023-08-17T17:16:26.462Z,7.15
2023-08-17T17:21:30.718Z,6.05
2023-08-17T17:26:37.589Z,5.40
2023-08-17T17:31:40.755Z,5.65
2023-08-17T17:36:45.121Z,5.90
2023-08-17T17:41:48.969Z,6.43
2023-08-17T17:46:52.759Z,6.03
2023-08-17T17:51:57.060Z,6.15
2023-08-17T17:57:00.723Z,6.05
2023-08-17T18:02:03.716Z,6.47
2023-08-17T18:07:08.102Z,6.60
2023-08-17T18:12:11.082Z,6.28
2023-08-17T18:17:14.409Z,6.00
2023-08-17T18:22:18.857Z,6.07
2023-08-17T18:27:22.703Z,6.32
2023-08-17T18:32:25.627Z,6.38
2023-08-17T18:37:30.045Z,6.75
2023-08-17T18:42:33.092Z,6.38
2023-08-17T18:47:35.942Z,6.30
2023-08-17T18:52:40.302Z,6.93
2023-08-17T18:57:43.210Z,7.13
2023-08-17T19:02:46.125Z,7.75
2023-08-17T19:07:50.494Z,7.28
2023-08-17T19:12:53.462Z,7.20
2023-08-17T19:17:56.656Z,7.43
2023-08-17T19:23:01.172Z,6.50
2023-08-17T19:28:04.079Z,7.15
2023-08-17T19:33:06.886Z,6.25
2023-08-17T19:38:11.219Z,6.00
2023-08-17T19:43:14.343Z,5.50
2023-08-17T19:48:17.193Z,4.53
2023-08-17T19:53:21.784Z,3.65
2023-08-17T19:58:24.700Z,4.60
2023-08-17T20:03:27.582Z,5.15
2023-08-17T20:08:31.825Z,5.57
2023-08-17T20:13:34.841Z,5.53
2023-08-17T20:18:37.720Z,5.93
2023-08-17T20:23:44.624Z,5.80
2023-08-17T20:28:47.490Z,5.30
2023-08-17T20:33:50.606Z,6.20
2023-08-17T20:38:54.697Z,6.32
2023-08-17T20:43:57.495Z,7.10
2023-08-17T20:49:00.371Z,7.20
2023-08-17T20:54:04.777Z,7.28
2023-08-17T20:59:07.760Z,6.95
2023-08-17T21:04:10.691Z,7.03
2023-08-17T21:09:16.946Z,6.93
2023-08-17T21:14:20.271Z,7.07
2023-08-17T21:19:23.124Z,7.13
2023-08-17T21:24:28.004Z,6.85
2023-08-17T21:29:30.831Z,6.25
2023-08-17T21:34:33.622Z,5.85
2023-08-17T21:39:38.121Z,6.43
2023-08-17T21:44:40.897Z,5.60
2023-08-17T21:49:43.918Z,5.90
2023-08-17T21:54:50.544Z,6.28
2023-08-17T21:59:53.635Z,5.60
2023-08-17T22:04:56.386Z,5.70
2023-08-17T22:10:00.525Z,6.38
2023-08-17T22:15:03.569Z,6.53
2023-08-17T22:20:07.711Z,6.45
2023-08-17T22:25:12.035Z,6.47
2023-08-17T22:30:15.237Z,5.65
2023-08-17T22:35:18.128Z,5.60
2023-08-17T22:40:22.268Z,6.25
2023-08-17T22:45:25.252Z,6.07
2023-08-17T22:50:28.033Z,6.47
2023-08-17T22:55:32.191Z,5.85
2023-08-17T23:00:34.976Z,6.28
2023-08-17T23:05:37.779Z,6.32
2023-08-17T23:10:41.895Z,5.90
2023-08-17T23:15:46.268Z,5.72
2023-08-17T23:20:49.131Z,5.50
2023-08-17T23:25:53.712Z,5.65
2023-08-17T23:30:59.563Z,5.68
2023-08-17T23:36:02.470Z,5.88
2023-08-17T23:41:06.586Z,5.75
2023-08-17T23:46:09.456Z,5.53
2023-08-17T23:51:12.325Z,5.47
2023-08-17T23:56:16.458Z,5.97
